Terminal Aerodrome Forecast
Issued by NWS Austin/San Antonio, TX

Home | Current Version | Previous Version | Text Only | Print | Product List | Glossary On
Versions: 1 2 3 4 5 6 7 8 9 10 11 12 13
445
FTUS44 KEWX 241731
TAFDRT
TAF
KDRT 241731Z 2418/2518 14013KT P6SM SCT012 OVC120
     FM242200 12008KT P6SM VCTS BKN035CB OVC120
      TEMPO 2500/2504 3SM TSRA OVC025CB
     FM250600 11008KT P6SM VCSH BKN020 OVC100
     FM251600 13010KT P6SM VCTS BKN025 BKN045CB=

USA.gov is the U.S. government's official web portal to all federal, state and local government web resources and services.